sensor_id;sensor_type;location;lat;lon;timestamp;P1;durP1;ratioP1;P2;durP2;ratioP2
11935;SDS011;6027;48.576;9.180;2023-02-28T00:00:24;5.70;;;2.60;;
11935;SDS011;6027;48.576;9.180;2023-02-28T00:02:50;3.00;;;2.23;;
11935;SDS011;6027;48.576;9.180;2023-02-28T00:05:17;4.80;;;2.87;;
11935;SDS011;6027;48.576;9.180;2023-02-28T00:07:44;4.60;;;3.13;;
11935;SDS011;6027;48.576;9.180;2023-02-28T00:10:15;5.20;;;2.53;;
11935;SDS011;6027;48.576;9.180;2023-02-28T00:12:48;4.90;;;2.80;;
11935;SDS011;6027;48.576;9.180;2023-02-28T00:15:14;5.10;;;2.80;;
11935;SDS011;6027;48.576;9.180;2023-02-28T00:17:40;4.20;;;3.60;;
11935;SDS011;6027;48.576;9.180;2023-02-28T00:20:06;5.50;;;3.70;;
11935;SDS011;6027;48.576;9.180;2023-02-28T00:22:42;4.87;;;3.37;;
11935;SDS011;6027;48.576;9.180;2023-02-28T00:25:10;4.03;;;2.83;;
11935;SDS011;6027;48.576;9.180;2023-02-28T00:27:37;4.50;;;3.07;;
11935;SDS011;6027;48.576;9.180;2023-02-28T00:30:04;3.93;;;2.60;;
11935;SDS011;6027;48.576;9.180;2023-02-28T00:32:30;4.13;;;2.83;;
11935;SDS011;6027;48.576;9.180;2023-02-28T00:34:56;4.87;;;3.37;;
11935;SDS011;6027;48.576;9.180;2023-02-28T00:37:21;5.90;;;3.90;;
11935;SDS011;6027;48.576;9.180;2023-02-28T00:39:47;6.37;;;4.10;;
11935;SDS011;6027;48.576;9.180;2023-02-28T00:42:12;4.10;;;2.80;;
11935;SDS011;6027;48.576;9.180;2023-02-28T00:44:38;3.93;;;2.67;;
11935;SDS011;6027;48.576;9.180;2023-02-28T00:47:03;2.53;;;2.33;;
11935;SDS011;6027;48.576;9.180;2023-02-28T00:49:29;2.93;;;2.33;;
11935;SDS011;6027;48.576;9.180;2023-02-28T00:51:55;2.87;;;2.33;;
11935;SDS011;6027;48.576;9.180;2023-02-28T00:54:21;3.73;;;2.37;;
11935;SDS011;6027;48.576;9.180;2023-02-28T00:56:48;3.13;;;2.07;;
11935;SDS011;6027;48.576;9.180;2023-02-28T00:59:14;3.07;;;2.53;;
11935;SDS011;6027;48.576;9.180;2023-02-28T01:01:41;5.07;;;2.40;;
11935;SDS011;6027;48.576;9.180;2023-02-28T01:04:08;2.47;;;2.17;;
11935;SDS011;6027;48.576;9.180;2023-02-28T01:06:34;2.83;;;2.20;;
11935;SDS011;6027;48.576;9.180;2023-02-28T01:08:59;4.30;;;2.20;;
11935;SDS011;6027;48.576;9.180;2023-02-28T01:11:25;7.07;;;2.83;;
11935;SDS011;6027;48.576;9.180;2023-02-28T01:13:51;2.30;;;2.10;;
11935;SDS011;6027;48.576;9.180;2023-02-28T01:16:16;3.13;;;2.27;;
11935;SDS011;6027;48.576;9.180;2023-02-28T01:18:42;2.60;;;2.13;;
11935;SDS011;6027;48.576;9.180;2023-02-28T01:21:09;2.50;;;2.10;;
11935;SDS011;6027;48.576;9.180;2023-02-28T01:23:37;3.47;;;2.40;;
11935;SDS011;6027;48.576;9.180;2023-02-28T01:26:04;2.67;;;2.20;;
11935;SDS011;6027;48.576;9.180;2023-02-28T01:28:31;3.13;;;2.30;;
11935;SDS011;6027;48.576;9.180;2023-02-28T01:30:56;3.50;;;2.40;;
11935;SDS011;6027;48.576;9.180;2023-02-28T01:33:22;3.43;;;2.30;;
11935;SDS011;6027;48.576;9.180;2023-02-28T01:35:47;3.93;;;2.47;;
11935;SDS011;6027;48.576;9.180;2023-02-28T01:38:13;3.03;;;2.10;;
11935;SDS011;6027;48.576;9.180;2023-02-28T01:40:38;4.40;;;2.40;;
11935;SDS011;6027;48.576;9.180;2023-02-28T01:43:05;3.30;;;2.63;;
11935;SDS011;6027;48.576;9.180;2023-02-28T01:45:50;3.63;;;2.47;;
11935;SDS011;6027;48.576;9.180;2023-02-28T01:48:17;5.63;;;2.60;;
11935;SDS011;6027;48.576;9.180;2023-02-28T01:50:44;3.17;;;2.00;;
11935;SDS011;6027;48.576;9.180;2023-02-28T01:53:13;4.10;;;2.47;;
11935;SDS011;6027;48.576;9.180;2023-02-28T01:55:47;3.17;;;2.33;;
11935;SDS011;6027;48.576;9.180;2023-02-28T01:58:16;2.73;;;2.13;;
11935;SDS011;6027;48.576;9.180;2023-02-28T02:00:41;3.63;;;2.63;;
11935;SDS011;6027;48.576;9.180;2023-02-28T02:03:12;2.63;;;2.27;;
11935;SDS011;6027;48.576;9.180;2023-02-28T02:05:40;4.27;;;2.70;;
11935;SDS011;6027;48.576;9.180;2023-02-28T02:08:10;2.63;;;2.30;;
11935;SDS011;6027;48.576;9.180;2023-02-28T02:15:59;4.33;;;2.60;;
11935;SDS011;6027;48.576;9.180;2023-02-28T02:37:21;4.50;;;2.70;;
11935;SDS011;6027;48.576;9.180;2023-02-28T02:42:55;2.97;;;2.53;;
11935;SDS011;6027;48.576;9.180;2023-02-28T02:46:01;3.37;;;2.60;;
11935;SDS011;6027;48.576;9.180;2023-02-28T02:48:21;2.60;;;2.40;;
11935;SDS011;6027;48.576;9.180;2023-02-28T02:50:55;4.50;;;2.80;;
11935;SDS011;6027;48.576;9.180;2023-02-28T02:53:30;4.07;;;2.50;;
11935;SDS011;6027;48.576;9.180;2023-02-28T02:56:02;3.63;;;2.60;;
11935;SDS011;6027;48.576;9.180;2023-02-28T02:58:32;3.30;;;2.33;;
11935;SDS011;6027;48.576;9.180;2023-02-28T03:01:07;3.80;;;2.90;;
11935;SDS011;6027;48.576;9.180;2023-02-28T03:03:37;3.07;;;2.53;;
11935;SDS011;6027;48.576;9.180;2023-02-28T03:06:03;3.73;;;2.60;;
11935;SDS011;6027;48.576;9.180;2023-02-28T03:11:16;3.43;;;2.90;;
11935;SDS011;6027;48.576;9.180;2023-02-28T03:16:13;4.23;;;2.77;;
11935;SDS011;6027;48.576;9.180;2023-02-28T03:18:49;4.50;;;2.90;;
11935;SDS011;6027;48.576;9.180;2023-02-28T03:21:27;4.63;;;2.83;;
11935;SDS011;6027;48.576;9.180;2023-02-28T03:24:11;3.50;;;2.80;;
11935;SDS011;6027;48.576;9.180;2023-02-28T03:26:45;3.93;;;3.00;;
11935;SDS011;6027;48.576;9.180;2023-02-28T03:31:48;3.47;;;2.90;;
11935;SDS011;6027;48.576;9.180;2023-02-28T03:34:22;3.70;;;2.80;;
11935;SDS011;6027;48.576;9.180;2023-02-28T03:36:53;4.23;;;2.97;;
11935;SDS011;6027;48.576;9.180;2023-02-28T03:39:44;4.17;;;2.80;;
11935;SDS011;6027;48.576;9.180;2023-02-28T03:42:20;4.07;;;3.10;;
11935;SDS011;6027;48.576;9.180;2023-02-28T03:45:23;4.87;;;3.57;;
11935;SDS011;6027;48.576;9.180;2023-02-28T03:56:17;4.33;;;3.33;;
11935;SDS011;6027;48.576;9.180;2023-02-28T04:01:35;4.43;;;2.90;;
11935;SDS011;6027;48.576;9.180;2023-02-28T04:04:06;4.43;;;3.13;;
11935;SDS011;6027;48.576;9.180;2023-02-28T04:06:33;3.07;;;2.80;;
11935;SDS011;6027;48.576;9.180;2023-02-28T04:08:59;3.70;;;3.03;;
11935;SDS011;6027;48.576;9.180;2023-02-28T04:14:16;3.83;;;3.27;;
11935;SDS011;6027;48.576;9.180;2023-02-28T04:16:43;3.67;;;3.10;;
11935;SDS011;6027;48.576;9.180;2023-02-28T04:19:09;4.00;;;3.30;;
11935;SDS011;6027;48.576;9.180;2023-02-28T04:21:40;4.60;;;3.37;;
11935;SDS011;6027;48.576;9.180;2023-02-28T04:24:08;3.87;;;3.30;;
11935;SDS011;6027;48.576;9.180;2023-02-28T04:26:39;5.20;;;3.50;;
11935;SDS011;6027;48.576;9.180;2023-02-28T04:29:11;5.20;;;3.53;;
11935;SDS011;6027;48.576;9.180;2023-02-28T04:31:38;6.40;;;3.70;;
11935;SDS011;6027;48.576;9.180;2023-02-28T04:34:04;5.50;;;3.53;;
11935;SDS011;6027;48.576;9.180;2023-02-28T04:36:30;3.83;;;3.43;;
11935;SDS011;6027;48.576;9.180;2023-02-28T04:38:56;4.33;;;3.40;;
11935;SDS011;6027;48.576;9.180;2023-02-28T04:41:22;4.37;;;3.73;;
11935;SDS011;6027;48.576;9.180;2023-02-28T04:43:48;4.00;;;3.30;;
11935;SDS011;6027;48.576;9.180;2023-02-28T04:46:13;3.93;;;3.40;;
11935;SDS011;6027;48.576;9.180;2023-02-28T04:48:39;5.80;;;3.70;;
11935;SDS011;6027;48.576;9.180;2023-02-28T04:51:06;4.60;;;3.67;;
11935;SDS011;6027;48.576;9.180;2023-02-28T04:53:34;4.97;;;3.67;;
11935;SDS011;6027;48.576;9.180;2023-02-28T04:56:02;4.07;;;3.53;;
11935;SDS011;6027;48.576;9.180;2023-02-28T04:58:28;5.80;;;4.03;;
11935;SDS011;6027;48.576;9.180;2023-02-28T05:00:56;6.23;;;4.00;;
11935;SDS011;6027;48.576;9.180;2023-02-28T05:03:41;4.80;;;3.50;;
11935;SDS011;6027;48.576;9.180;2023-02-28T05:06:08;4.00;;;3.40;;
11935;SDS011;6027;48.576;9.180;2023-02-28T05:08:34;4.47;;;4.00;;
11935;SDS011;6027;48.576;9.180;2023-02-28T05:11:00;5.30;;;4.27;;
11935;SDS011;6027;48.576;9.180;2023-02-28T05:13:27;4.63;;;3.93;;
11935;SDS011;6027;48.576;9.180;2023-02-28T05:15:53;5.23;;;4.10;;
11935;SDS011;6027;48.576;9.180;2023-02-28T05:18:18;4.47;;;4.07;;
11935;SDS011;6027;48.576;9.180;2023-02-28T05:20:44;4.93;;;4.50;;
11935;SDS011;6027;48.576;9.180;2023-02-28T05:23:13;4.90;;;4.40;;
11935;SDS011;6027;48.576;9.180;2023-02-28T05:25:40;5.27;;;4.57;;
11935;SDS011;6027;48.576;9.180;2023-02-28T05:28:06;4.57;;;4.07;;
11935;SDS011;6027;48.576;9.180;2023-02-28T05:30:32;5.43;;;4.47;;
11935;SDS011;6027;48.576;9.180;2023-02-28T05:32:58;6.83;;;4.93;;
11935;SDS011;6027;48.576;9.180;2023-02-28T05:35:24;4.57;;;3.97;;
11935;SDS011;6027;48.576;9.180;2023-02-28T05:37:50;6.73;;;4.73;;
11935;SDS011;6027;48.576;9.180;2023-02-28T05:40:16;5.77;;;4.93;;
11935;SDS011;6027;48.576;9.180;2023-02-28T05:42:42;5.53;;;4.57;;
11935;SDS011;6027;48.576;9.180;2023-02-28T05:45:08;5.73;;;4.40;;
11935;SDS011;6027;48.576;9.180;2023-02-28T05:47:34;5.93;;;4.93;;
11935;SDS011;6027;48.576;9.180;2023-02-28T05:50:00;5.13;;;4.63;;
11935;SDS011;6027;48.576;9.180;2023-02-28T05:52:26;5.60;;;4.80;;
11935;SDS011;6027;48.576;9.180;2023-02-28T05:54:52;6.07;;;5.10;;
11935;SDS011;6027;48.576;9.180;2023-02-28T05:57:19;7.10;;;5.20;;
11935;SDS011;6027;48.576;9.180;2023-02-28T05:59:44;6.37;;;5.00;;
11935;SDS011;6027;48.576;9.180;2023-02-28T06:02:13;5.50;;;4.93;;
11935;SDS011;6027;48.576;9.180;2023-02-28T06:04:40;8.10;;;4.97;;
11935;SDS011;6027;48.576;9.180;2023-02-28T06:07:06;5.43;;;4.93;;
11935;SDS011;6027;48.576;9.180;2023-02-28T06:09:34;5.87;;;4.87;;
11935;SDS011;6027;48.576;9.180;2023-02-28T06:12:01;7.57;;;5.07;;
11935;SDS011;6027;48.576;9.180;2023-02-28T06:14:29;5.43;;;4.93;;
11935;SDS011;6027;48.576;9.180;2023-02-28T06:16:56;6.03;;;5.23;;
11935;SDS011;6027;48.576;9.180;2023-02-28T06:19:22;6.90;;;4.80;;
11935;SDS011;6027;48.576;9.180;2023-02-28T06:21:50;6.30;;;4.97;;
11935;SDS011;6027;48.576;9.180;2023-02-28T06:24:17;5.97;;;5.23;;
11935;SDS011;6027;48.576;9.180;2023-02-28T06:26:46;5.77;;;5.13;;
11935;SDS011;6027;48.576;9.180;2023-02-28T06:29:11;5.50;;;4.90;;
11935;SDS011;6027;48.576;9.180;2023-02-28T06:31:38;6.77;;;5.37;;
11935;SDS011;6027;48.576;9.180;2023-02-28T06:34:03;5.97;;;5.37;;
11935;SDS011;6027;48.576;9.180;2023-02-28T06:36:29;7.47;;;5.50;;
11935;SDS011;6027;48.576;9.180;2023-02-28T06:38:55;7.43;;;5.57;;
11935;SDS011;6027;48.576;9.180;2023-02-28T06:41:22;7.77;;;5.57;;
11935;SDS011;6027;48.576;9.180;2023-02-28T06:43:48;6.80;;;5.47;;
11935;SDS011;6027;48.576;9.180;2023-02-28T06:46:13;6.27;;;5.57;;
11935;SDS011;6027;48.576;9.180;2023-02-28T06:51:10;8.47;;;6.07;;
11935;SDS011;6027;48.576;9.180;2023-02-28T06:53:41;8.00;;;6.10;;
11935;SDS011;6027;48.576;9.180;2023-02-28T06:56:11;9.50;;;7.03;;
11935;SDS011;6027;48.576;9.180;2023-02-28T06:58:38;7.37;;;6.53;;
11935;SDS011;6027;48.576;9.180;2023-02-28T07:01:04;7.77;;;6.40;;
11935;SDS011;6027;48.576;9.180;2023-02-28T07:03:30;6.47;;;5.83;;
11935;SDS011;6027;48.576;9.180;2023-02-28T07:05:56;7.50;;;6.00;;
11935;SDS011;6027;48.576;9.180;2023-02-28T07:08:22;6.77;;;6.07;;
11935;SDS011;6027;48.576;9.180;2023-02-28T07:10:52;7.90;;;6.07;;
11935;SDS011;6027;48.576;9.180;2023-02-28T07:13:21;7.60;;;6.17;;
11935;SDS011;6027;48.576;9.180;2023-02-28T07:15:54;7.17;;;6.00;;
11935;SDS011;6027;48.576;9.180;2023-02-28T07:18:20;7.07;;;5.67;;
11935;SDS011;6027;48.576;9.180;2023-02-28T07:20:45;6.93;;;5.90;;
11935;SDS011;6027;48.576;9.180;2023-02-28T07:23:11;6.77;;;6.00;;
11935;SDS011;6027;48.576;9.180;2023-02-28T07:25:36;6.30;;;5.70;;
11935;SDS011;6027;48.576;9.180;2023-02-28T07:28:02;9.87;;;6.40;;
11935;SDS011;6027;48.576;9.180;2023-02-28T07:30:27;8.33;;;6.47;;
11935;SDS011;6027;48.576;9.180;2023-02-28T07:32:52;7.43;;;6.23;;
11935;SDS011;6027;48.576;9.180;2023-02-28T07:35:21;7.13;;;6.30;;
11935;SDS011;6027;48.576;9.180;2023-02-28T07:37:47;7.43;;;6.47;;
11935;SDS011;6027;48.576;9.180;2023-02-28T07:40:12;10.87;;;7.70;;
11935;SDS011;6027;48.576;9.180;2023-02-28T07:42:38;11.03;;;6.80;;
11935;SDS011;6027;48.576;9.180;2023-02-28T07:45:05;6.83;;;6.03;;
11935;SDS011;6027;48.576;9.180;2023-02-28T07:47:31;7.80;;;6.13;;
11935;SDS011;6027;48.576;9.180;2023-02-28T07:49:57;7.60;;;6.67;;
11935;SDS011;6027;48.576;9.180;2023-02-28T07:52:23;10.47;;;7.33;;
11935;SDS011;6027;48.576;9.180;2023-02-28T07:54:49;8.60;;;6.80;;
11935;SDS011;6027;48.576;9.180;2023-02-28T07:57:15;9.83;;;6.70;;
11935;SDS011;6027;48.576;9.180;2023-02-28T07:59:41;8.70;;;7.13;;
11935;SDS011;6027;48.576;9.180;2023-02-28T08:02:08;10.63;;;7.83;;
11935;SDS011;6027;48.576;9.180;2023-02-28T08:04:44;14.77;;;8.40;;
11935;SDS011;6027;48.576;9.180;2023-02-28T08:07:11;12.27;;;8.77;;
11935;SDS011;6027;48.576;9.180;2023-02-28T08:09:38;7.53;;;6.83;;
11935;SDS011;6027;48.576;9.180;2023-02-28T08:12:07;8.63;;;6.67;;
11935;SDS011;6027;48.576;9.180;2023-02-28T08:14:35;9.43;;;6.93;;
11935;SDS011;6027;48.576;9.180;2023-02-28T08:17:01;9.97;;;7.00;;
11935;SDS011;6027;48.576;9.180;2023-02-28T08:19:27;7.63;;;6.70;;
11935;SDS011;6027;48.576;9.180;2023-02-28T08:21:53;10.10;;;8.13;;
11935;SDS011;6027;48.576;9.180;2023-02-28T08:24:19;8.10;;;6.97;;
11935;SDS011;6027;48.576;9.180;2023-02-28T08:26:44;10.20;;;7.17;;
11935;SDS011;6027;48.576;9.180;2023-02-28T08:29:10;7.90;;;7.10;;
11935;SDS011;6027;48.576;9.180;2023-02-28T08:31:35;7.70;;;6.93;;
11935;SDS011;6027;48.576;9.180;2023-02-28T08:34:11;9.27;;;7.13;;
11935;SDS011;6027;48.576;9.180;2023-02-28T08:36:39;10.30;;;7.10;;
11935;SDS011;6027;48.576;9.180;2023-02-28T08:39:05;12.17;;;7.70;;
11935;SDS011;6027;48.576;9.180;2023-02-28T08:41:31;8.83;;;7.93;;
11935;SDS011;6027;48.576;9.180;2023-02-28T08:43:57;8.70;;;7.53;;
11935;SDS011;6027;48.576;9.180;2023-02-28T08:46:23;9.13;;;7.60;;
11935;SDS011;6027;48.576;9.180;2023-02-28T08:48:51;8.10;;;7.10;;
11935;SDS011;6027;48.576;9.180;2023-02-28T08:51:18;7.73;;;6.90;;
11935;SDS011;6027;48.576;9.180;2023-02-28T08:53:51;8.20;;;7.40;;
11935;SDS011;6027;48.576;9.180;2023-02-28T08:56:20;7.73;;;6.93;;
11935;SDS011;6027;48.576;9.180;2023-02-28T08:58:47;7.97;;;7.17;;
11935;SDS011;6027;48.576;9.180;2023-02-28T09:01:14;12.57;;;7.40;;
11935;SDS011;6027;48.576;9.180;2023-02-28T09:03:40;8.13;;;6.97;;
11935;SDS011;6027;48.576;9.180;2023-02-28T09:06:07;9.77;;;8.07;;
11935;SDS011;6027;48.576;9.180;2023-02-28T09:08:34;10.17;;;7.57;;
11935;SDS011;6027;48.576;9.180;2023-02-28T09:11:00;10.40;;;7.53;;
11935;SDS011;6027;48.576;9.180;2023-02-28T09:13:26;8.60;;;7.63;;
11935;SDS011;6027;48.576;9.180;2023-02-28T09:15:53;8.97;;;7.47;;
11935;SDS011;6027;48.576;9.180;2023-02-28T09:18:19;8.40;;;7.40;;
11935;SDS011;6027;48.576;9.180;2023-02-28T09:20:45;10.63;;;7.23;;
11935;SDS011;6027;48.576;9.180;2023-02-28T09:23:11;8.07;;;7.27;;
11935;SDS011;6027;48.576;9.180;2023-02-28T09:25:37;10.53;;;7.63;;
11935;SDS011;6027;48.576;9.180;2023-02-28T09:28:03;8.57;;;7.67;;
11935;SDS011;6027;48.576;9.180;2023-02-28T09:30:29;8.13;;;7.33;;
11935;SDS011;6027;48.576;9.180;2023-02-28T09:32:55;8.60;;;7.70;;
11935;SDS011;6027;48.576;9.180;2023-02-28T09:35:21;9.77;;;8.43;;
11935;SDS011;6027;48.576;9.180;2023-02-28T09:37:49;8.17;;;7.37;;
11935;SDS011;6027;48.576;9.180;2023-02-28T09:40:17;8.80;;;7.50;;
11935;SDS011;6027;48.576;9.180;2023-02-28T09:42:45;8.17;;;7.37;;
11935;SDS011;6027;48.576;9.180;2023-02-28T09:45:32;8.90;;;7.57;;
11935;SDS011;6027;48.576;9.180;2023-02-28T09:48:04;9.00;;;7.67;;
11935;SDS011;6027;48.576;9.180;2023-02-28T09:50:45;10.73;;;7.53;;
11935;SDS011;6027;48.576;9.180;2023-02-28T09:53:22;10.03;;;7.43;;
11935;SDS011;6027;48.576;9.180;2023-02-28T09:56:02;8.67;;;7.67;;
11935;SDS011;6027;48.576;9.180;2023-02-28T09:58:37;9.30;;;7.97;;
11935;SDS011;6027;48.576;9.180;2023-02-28T10:01:19;8.53;;;7.73;;
11935;SDS011;6027;48.576;9.180;2023-02-28T10:04:00;8.80;;;7.90;;
11935;SDS011;6027;48.576;9.180;2023-02-28T10:06:50;9.53;;;7.80;;
11935;SDS011;6027;48.576;9.180;2023-02-28T10:09:22;9.10;;;7.03;;
11935;SDS011;6027;48.576;9.180;2023-02-28T10:11:52;8.20;;;7.30;;
11935;SDS011;6027;48.576;9.180;2023-02-28T10:14:23;8.40;;;7.60;;
11935;SDS011;6027;48.576;9.180;2023-02-28T10:16:52;8.97;;;7.87;;
11935;SDS011;6027;48.576;9.180;2023-02-28T10:19:30;9.37;;;7.77;;
11935;SDS011;6027;48.576;9.180;2023-02-28T10:23:00;8.43;;;7.53;;
11935;SDS011;6027;48.576;9.180;2023-02-28T10:25:19;8.80;;;7.67;;
11935;SDS011;6027;48.576;9.180;2023-02-28T10:30:18;9.43;;;7.50;;
11935;SDS011;6027;48.576;9.180;2023-02-28T10:32:46;8.57;;;7.63;;
11935;SDS011;6027;48.576;9.180;2023-02-28T10:35:16;9.47;;;8.13;;
11935;SDS011;6027;48.576;9.180;2023-02-28T10:37:56;12.03;;;9.27;;
11935;SDS011;6027;48.576;9.180;2023-02-28T10:40:26;9.27;;;7.80;;
11935;SDS011;6027;48.576;9.180;2023-02-28T10:43:40;8.50;;;7.57;;
11935;SDS011;6027;48.576;9.180;2023-02-28T10:45:40;8.13;;;7.33;;
11935;SDS011;6027;48.576;9.180;2023-02-28T10:56:05;8.63;;;7.70;;
11935;SDS011;6027;48.576;9.180;2023-02-28T10:58:55;8.73;;;7.27;;
11935;SDS011;6027;48.576;9.180;2023-02-28T11:01:45;7.90;;;7.10;;
11935;SDS011;6027;48.576;9.180;2023-02-28T11:04:31;9.87;;;7.70;;
11935;SDS011;6027;48.576;9.180;2023-02-28T11:09:38;8.43;;;7.47;;
11935;SDS011;6027;48.576;9.180;2023-02-28T11:12:06;9.20;;;7.63;;
11935;SDS011;6027;48.576;9.180;2023-02-28T11:14:48;8.57;;;7.20;;
11935;SDS011;6027;48.576;9.180;2023-02-28T11:17:26;8.57;;;7.77;;
11935;SDS011;6027;48.576;9.180;2023-02-28T11:19:58;10.27;;;8.03;;
11935;SDS011;6027;48.576;9.180;2023-02-28T11:22:29;7.43;;;6.20;;
11935;SDS011;6027;48.576;9.180;2023-02-28T11:25:01;8.50;;;7.63;;
11935;SDS011;6027;48.576;9.180;2023-02-28T11:29:59;8.33;;;7.53;;
11935;SDS011;6027;48.576;9.180;2023-02-28T11:32:26;9.80;;;8.37;;
11935;SDS011;6027;48.576;9.180;2023-02-28T11:35:10;9.87;;;8.83;;
11935;SDS011;6027;48.576;9.180;2023-02-28T11:37:44;8.63;;;7.80;;
11935;SDS011;6027;48.576;9.180;2023-02-28T11:40:17;8.77;;;7.87;;
11935;SDS011;6027;48.576;9.180;2023-02-28T11:43:17;8.90;;;8.10;;
11935;SDS011;6027;48.576;9.180;2023-02-28T11:48:31;8.53;;;7.83;;
11935;SDS011;6027;48.576;9.180;2023-02-28T11:57:09;10.13;;;8.27;;
11935;SDS011;6027;48.576;9.180;2023-02-28T12:05:14;9.23;;;8.33;;
11935;SDS011;6027;48.576;9.180;2023-02-28T12:10:24;10.13;;;9.13;;
11935;SDS011;6027;48.576;9.180;2023-02-28T12:16:07;11.07;;;8.30;;
11935;SDS011;6027;48.576;9.180;2023-02-28T12:18:50;9.50;;;8.60;;
11935;SDS011;6027;48.576;9.180;2023-02-28T12:27:37;8.80;;;7.90;;
11935;SDS011;6027;48.576;9.180;2023-02-28T12:32:52;8.50;;;7.70;;
11935;SDS011;6027;48.576;9.180;2023-02-28T12:35:23;8.60;;;7.70;;
11935;SDS011;6027;48.576;9.180;2023-02-28T12:37:59;8.17;;;7.47;;
11935;SDS011;6027;48.576;9.180;2023-02-28T12:40:27;9.00;;;8.20;;
11935;SDS011;6027;48.576;9.180;2023-02-28T12:43:00;8.87;;;8.07;;
11935;SDS011;6027;48.576;9.180;2023-02-28T12:45:39;8.90;;;8.00;;
11935;SDS011;6027;48.576;9.180;2023-02-28T12:48:11;9.00;;;8.20;;
11935;SDS011;6027;48.576;9.180;2023-02-28T12:50:40;9.83;;;8.93;;
11935;SDS011;6027;48.576;9.180;2023-02-28T12:58:50;8.87;;;7.97;;
11935;SDS011;6027;48.576;9.180;2023-02-28T13:09:24;8.87;;;8.07;;
11935;SDS011;6027;48.576;9.180;2023-02-28T13:11:51;9.90;;;9.00;;
11935;SDS011;6027;48.576;9.180;2023-02-28T13:19:32;9.13;;;8.27;;
11935;SDS011;6027;48.576;9.180;2023-02-28T13:21:59;9.20;;;8.30;;
11935;SDS011;6027;48.576;9.180;2023-02-28T13:27:37;9.40;;;8.50;;
11935;SDS011;6027;48.576;9.180;2023-02-28T13:46:32;8.70;;;7.70;;
11935;SDS011;6027;48.576;9.180;2023-02-28T13:51:44;8.57;;;7.77;;
11935;SDS011;6027;48.576;9.180;2023-02-28T13:54:16;12.50;;;10.00;;
11935;SDS011;6027;48.576;9.180;2023-02-28T13:57:11;8.53;;;7.73;;
11935;SDS011;6027;48.576;9.180;2023-02-28T13:59:51;8.57;;;7.67;;
11935;SDS011;6027;48.576;9.180;2023-02-28T14:02:52;8.40;;;7.53;;
11935;SDS011;6027;48.576;9.180;2023-02-28T14:05:27;8.80;;;7.80;;
11935;SDS011;6027;48.576;9.180;2023-02-28T14:07:59;9.37;;;7.87;;
11935;SDS011;6027;48.576;9.180;2023-02-28T14:10:32;9.63;;;8.40;;
11935;SDS011;6027;48.576;9.180;2023-02-28T14:13:04;8.43;;;7.53;;
11935;SDS011;6027;48.576;9.180;2023-02-28T14:18:27;10.83;;;8.33;;
11935;SDS011;6027;48.576;9.180;2023-02-28T14:21:01;8.27;;;7.37;;
11935;SDS011;6027;48.576;9.180;2023-02-28T14:32:00;9.70;;;8.70;;
11935;SDS011;6027;48.576;9.180;2023-02-28T14:37:33;8.53;;;7.73;;
11935;SDS011;6027;48.576;9.180;2023-02-28T14:40:04;8.87;;;7.97;;
11935;SDS011;6027;48.576;9.180;2023-02-28T14:42:39;9.50;;;8.07;;
11935;SDS011;6027;48.576;9.180;2023-02-28T14:45:21;8.60;;;7.77;;
11935;SDS011;6027;48.576;9.180;2023-02-28T14:47:49;9.60;;;7.60;;
11935;SDS011;6027;48.576;9.180;2023-02-28T14:50:22;9.03;;;7.20;;
11935;SDS011;6027;48.576;9.180;2023-02-28T14:52:54;8.43;;;7.57;;
11935;SDS011;6027;48.576;9.180;2023-02-28T14:55:31;7.70;;;7.00;;
11935;SDS011;6027;48.576;9.180;2023-02-28T14:58:00;9.03;;;8.13;;
11935;SDS011;6027;48.576;9.180;2023-02-28T15:00:30;8.80;;;7.90;;
11935;SDS011;6027;48.576;9.180;2023-02-28T15:02:58;8.53;;;7.70;;
11935;SDS011;6027;48.576;9.180;2023-02-28T15:05:30;9.10;;;6.43;;
11935;SDS011;6027;48.576;9.180;2023-02-28T15:08:03;8.00;;;7.20;;
11935;SDS011;6027;48.576;9.180;2023-02-28T15:10:44;9.77;;;7.20;;
11935;SDS011;6027;48.576;9.180;2023-02-28T15:13:15;8.00;;;7.20;;
11935;SDS011;6027;48.576;9.180;2023-02-28T15:15:47;8.33;;;7.00;;
11935;SDS011;6027;48.576;9.180;2023-02-28T15:20:49;8.13;;;7.33;;
11935;SDS011;6027;48.576;9.180;2023-02-28T15:23:16;8.30;;;7.07;;
11935;SDS011;6027;48.576;9.180;2023-02-28T15:25:42;7.87;;;7.10;;
11935;SDS011;6027;48.576;9.180;2023-02-28T15:28:10;8.47;;;7.20;;
11935;SDS011;6027;48.576;9.180;2023-02-28T15:30:50;8.27;;;7.37;;
11935;SDS011;6027;48.576;9.180;2023-02-28T15:33:19;8.77;;;7.83;;
11935;SDS011;6027;48.576;9.180;2023-02-28T15:35:47;9.07;;;7.23;;
11935;SDS011;6027;48.576;9.180;2023-02-28T15:40:46;10.53;;;7.83;;
11935;SDS011;6027;48.576;9.180;2023-02-28T15:43:23;11.77;;;9.27;;
11935;SDS011;6027;48.576;9.180;2023-02-28T15:46:00;11.07;;;9.10;;
11935;SDS011;6027;48.576;9.180;2023-02-28T15:53:41;10.27;;;9.10;;
11935;SDS011;6027;48.576;9.180;2023-02-28T15:56:29;11.37;;;8.13;;
11935;SDS011;6027;48.576;9.180;2023-02-28T15:58:57;11.07;;;7.97;;
11935;SDS011;6027;48.576;9.180;2023-02-28T16:01:26;9.03;;;7.90;;
11935;SDS011;6027;48.576;9.180;2023-02-28T16:03:57;8.47;;;7.57;;
11935;SDS011;6027;48.576;9.180;2023-02-28T16:06:35;10.17;;;8.97;;
11935;SDS011;6027;48.576;9.180;2023-02-28T16:09:03;8.40;;;7.60;;
11935;SDS011;6027;48.576;9.180;2023-02-28T16:11:33;8.40;;;6.97;;
11935;SDS011;6027;48.576;9.180;2023-02-28T16:14:00;8.53;;;7.67;;
11935;SDS011;6027;48.576;9.180;2023-02-28T16:16:26;8.37;;;7.57;;
11935;SDS011;6027;48.576;9.180;2023-02-28T16:18:51;10.47;;;7.77;;
11935;SDS011;6027;48.576;9.180;2023-02-28T16:21:17;8.73;;;7.93;;
11935;SDS011;6027;48.576;9.180;2023-02-28T16:23:43;10.27;;;7.90;;
11935;SDS011;6027;48.576;9.180;2023-02-28T16:26:08;8.90;;;8.10;;
11935;SDS011;6027;48.576;9.180;2023-02-28T16:28:44;8.83;;;7.93;;
11935;SDS011;6027;48.576;9.180;2023-02-28T16:31:10;8.90;;;7.70;;
11935;SDS011;6027;48.576;9.180;2023-02-28T16:33:41;9.33;;;8.10;;
11935;SDS011;6027;48.576;9.180;2023-02-28T16:36:16;8.40;;;7.60;;
11935;SDS011;6027;48.576;9.180;2023-02-28T16:38:44;8.43;;;7.53;;
11935;SDS011;6027;48.576;9.180;2023-02-28T16:41:11;9.53;;;8.63;;
11935;SDS011;6027;48.576;9.180;2023-02-28T16:43:43;10.27;;;9.17;;
11935;SDS011;6027;48.576;9.180;2023-02-28T16:46:10;13.60;;;11.33;;
11935;SDS011;6027;48.576;9.180;2023-02-28T16:48:36;12.23;;;10.93;;
11935;SDS011;6027;48.576;9.180;2023-02-28T16:51:02;8.10;;;7.40;;
11935;SDS011;6027;48.576;9.180;2023-02-28T16:53:29;8.43;;;7.63;;
11935;SDS011;6027;48.576;9.180;2023-02-28T16:55:54;8.53;;;7.63;;
11935;SDS011;6027;48.576;9.180;2023-02-28T16:58:21;10.17;;;8.20;;
11935;SDS011;6027;48.576;9.180;2023-02-28T17:00:48;9.07;;;8.17;;
11935;SDS011;6027;48.576;9.180;2023-02-28T17:03:24;8.17;;;7.37;;
11935;SDS011;6027;48.576;9.180;2023-02-28T17:05:51;10.10;;;9.10;;
11935;SDS011;6027;48.576;9.180;2023-02-28T17:08:16;9.27;;;8.37;;
11935;SDS011;6027;48.576;9.180;2023-02-28T17:10:42;10.87;;;8.50;;
11935;SDS011;6027;48.576;9.180;2023-02-28T17:13:08;10.50;;;8.90;;
11935;SDS011;6027;48.576;9.180;2023-02-28T17:15:34;9.40;;;8.50;;
11935;SDS011;6027;48.576;9.180;2023-02-28T17:18:00;9.67;;;8.67;;
11935;SDS011;6027;48.576;9.180;2023-02-28T17:20:26;9.87;;;8.97;;
11935;SDS011;6027;48.576;9.180;2023-02-28T17:22:52;9.97;;;8.97;;
11935;SDS011;6027;48.576;9.180;2023-02-28T17:25:18;11.27;;;10.17;;
11935;SDS011;6027;48.576;9.180;2023-02-28T17:27:44;10.97;;;9.97;;
11935;SDS011;6027;48.576;9.180;2023-02-28T17:30:14;10.63;;;9.43;;
11935;SDS011;6027;48.576;9.180;2023-02-28T17:32:42;13.77;;;11.40;;
11935;SDS011;6027;48.576;9.180;2023-02-28T17:35:08;13.23;;;11.83;;
11935;SDS011;6027;48.576;9.180;2023-02-28T17:37:34;12.97;;;11.67;;
11935;SDS011;6027;48.576;9.180;2023-02-28T17:39:59;14.00;;;12.13;;
11935;SDS011;6027;48.576;9.180;2023-02-28T17:42:25;12.83;;;11.63;;
11935;SDS011;6027;48.576;9.180;2023-02-28T17:44:50;11.73;;;10.27;;
11935;SDS011;6027;48.576;9.180;2023-02-28T17:47:16;10.83;;;9.77;;
11935;SDS011;6027;48.576;9.180;2023-02-28T17:49:41;12.00;;;10.50;;
11935;SDS011;6027;48.576;9.180;2023-02-28T17:52:07;11.63;;;10.43;;
11935;SDS011;6027;48.576;9.180;2023-02-28T17:54:33;11.73;;;10.53;;